WMT8UN LROP-LIME
Flight info
| Callsign | WMT8UN |
|---|---|
| Flight time | 2h 3m |
| Altitude | 36000 |
| Route | LROP/08L N0459F360 POLU1K POLUN DCT ANASA DCT BAXON DCT BOA DCT OGPUD DCT BETMU DCT OSBUL OSBU4E LIME/10 |
| Aircraft | A321/M-SDE3FGHIRWY/LB1 |
Departure
| Time | 2026-04-30 08:17 |
|---|---|
| Airport | Bucharest Henri Coandă International Airport (LROP) |
Arrival
| Time | 2026-04-30 10:20 |
|---|---|
| Airport | Il Caravaggio International Airport (LIME) |
| Time | Latitude | Longitude | Altitude | Speed | Heading |
|---|---|---|---|---|---|
| 2026-04-30 07:31 | 44.57010 | 26.07964 | 321 ft | 0 kts | 354° |
| 2026-04-30 08:03 | 44.56993 | 26.07966 | 319 ft | 4 kts | 354° |
| 2026-04-30 08:03 | 44.56945 | 26.07973 | 319 ft | 4 kts | 4° |
| 2026-04-30 08:03 | 44.56926 | 26.07962 | 318 ft | 4 kts | 66° |
| 2026-04-30 08:04 | 44.56921 | 26.07928 | 317 ft | 3 kts | 84° |
| 2026-04-30 08:04 | 44.56921 | 26.07925 | 317 ft | 0 kts | 84° |
| 2026-04-30 08:08 | 44.56922 | 26.07939 | 319 ft | 3 kts | 83° |
| 2026-04-30 08:08 | 44.56928 | 26.07988 | 320 ft | 7 kts | 79° |
| 2026-04-30 08:09 | 44.56935 | 26.08069 | 320 ft | 10 kts | 85° |
| 2026-04-30 08:09 | 44.56939 | 26.08143 | 320 ft | 8 kts | 84° |
| 2026-04-30 08:09 | 44.56942 | 26.08181 | 320 ft | 8 kts | 82° |
| 2026-04-30 08:09 | 44.56946 | 26.08238 | 320 ft | 8 kts | 84° |
| 2026-04-30 08:10 | 44.56953 | 26.08320 | 320 ft | 9 kts | 84° |
| 2026-04-30 08:10 | 44.56928 | 26.08392 | 320 ft | 9 kts | 138° |
| 2026-04-30 08:10 | 44.56899 | 26.08470 | 320 ft | 9 kts | 94° |
| 2026-04-30 08:10 | 44.56931 | 26.08539 | 320 ft | 8 kts | 16° |
| 2026-04-30 08:11 | 44.56992 | 26.08540 | 320 ft | 9 kts | 352° |
| 2026-04-30 08:11 | 44.57056 | 26.08528 | 320 ft | 10 kts | 355° |
| 2026-04-30 08:11 | 44.57124 | 26.08520 | 320 ft | 10 kts | 353° |
| 2026-04-30 08:11 | 44.57195 | 26.08509 | 320 ft | 10 kts | 354° |
| 2026-04-30 08:12 | 44.57268 | 26.08499 | 321 ft | 11 kts | 354° |
| 2026-04-30 08:12 | 44.57344 | 26.08488 | 321 ft | 11 kts | 354° |
| 2026-04-30 08:12 | 44.57421 | 26.08476 | 321 ft | 11 kts | 354° |
| 2026-04-30 08:12 | 44.57500 | 26.08465 | 321 ft | 9 kts | 354° |
| 2026-04-30 08:13 | 44.57559 | 26.08457 | 321 ft | 9 kts | 354° |
| 2026-04-30 08:13 | 44.57615 | 26.08449 | 323 ft | 7 kts | 354° |
| 2026-04-30 08:13 | 44.57656 | 26.08468 | 323 ft | 6 kts | 41° |
| 2026-04-30 08:13 | 44.57671 | 26.08519 | 323 ft | 6 kts | 80° |
| 2026-04-30 08:14 | 44.57672 | 26.08539 | 323 ft | 0 kts | 83° |
| 2026-04-30 08:17 | 44.57675 | 26.08577 | 323 ft | 22 kts | 83° |
| 2026-04-30 08:17 | 44.57721 | 26.09147 | 319 ft | 93 kts | 84° |
| 2026-04-30 08:17 | 44.57813 | 26.10336 | 324 ft | 149 kts | 83° |
| 2026-04-30 08:17 | 44.57926 | 26.11829 | 947 ft | 143 kts | 83° |
| 2026-04-30 08:18 | 44.58038 | 26.13135 | 1873 ft | 137 kts | 78° |
| 2026-04-30 08:18 | 44.58179 | 26.14485 | 2376 ft | 142 kts | 78° |
| 2026-04-30 08:18 | 44.58315 | 26.15901 | 2799 ft | 155 kts | 82° |
| 2026-04-30 08:18 | 44.58419 | 26.17452 | 3262 ft | 162 kts | 83° |
| 2026-04-30 08:19 | 44.58521 | 26.19034 | 3777 ft | 164 kts | 84° |
| 2026-04-30 08:19 | 44.58628 | 26.20646 | 4308 ft | 168 kts | 84° |
| 2026-04-30 08:19 | 44.58739 | 26.22284 | 4837 ft | 170 kts | 85° |
| 2026-04-30 08:19 | 44.58857 | 26.23986 | 5224 ft | 184 kts | 86° |
| 2026-04-30 08:20 | 44.58988 | 26.25871 | 5427 ft | 206 kts | 86° |
| 2026-04-30 08:20 | 44.59130 | 26.27955 | 5580 ft | 229 kts | 88° |
| 2026-04-30 08:20 | 44.58922 | 26.30222 | 5893 ft | 246 kts | 112° |
| 2026-04-30 08:20 | 44.57910 | 26.32207 | 6434 ft | 258 kts | 141° |
| 2026-04-30 08:21 | 44.56260 | 26.33227 | 7025 ft | 267 kts | 173° |
| 2026-04-30 08:21 | 44.54427 | 26.32821 | 7698 ft | 274 kts | 206° |
| 2026-04-30 08:21 | 44.53018 | 26.31042 | 8389 ft | 280 kts | 240° |
| 2026-04-30 08:21 | 44.52564 | 26.29315 | 8865 ft | 282 kts | 261° |
| 2026-04-30 08:22 | 44.52380 | 26.26572 | 9629 ft | 284 kts | 267° |
| 2026-04-30 08:22 | 44.52271 | 26.23797 | 10393 ft | 287 kts | 268° |
| 2026-04-30 08:22 | 44.52174 | 26.20903 | 10655 ft | 308 kts | 268° |
| 2026-04-30 08:22 | 44.52072 | 26.17842 | 10794 ft | 331 kts | 267° |
| 2026-04-30 08:23 | 44.51954 | 26.14516 | 10922 ft | 352 kts | 267° |
| 2026-04-30 08:23 | 44.51820 | 26.11013 | 11280 ft | 364 kts | 266° |
| 2026-04-30 08:23 | 44.51673 | 26.07459 | 11918 ft | 368 kts | 265° |
| 2026-04-30 08:23 | 44.51519 | 26.03876 | 12639 ft | 369 kts | 265° |
| 2026-04-30 08:24 | 44.51359 | 26.00279 | 13379 ft | 370 kts | 264° |
| 2026-04-30 08:24 | 44.51198 | 25.96668 | 14099 ft | 372 kts | 265° |
| 2026-04-30 08:24 | 44.51037 | 25.93042 | 14742 ft | 374 kts | 265° |
| 2026-04-30 08:24 | 44.50875 | 25.89404 | 15433 ft | 374 kts | 265° |
| 2026-04-30 08:25 | 44.50714 | 25.85762 | 16145 ft | 375 kts | 265° |
| 2026-04-30 08:25 | 44.50554 | 25.82122 | 16882 ft | 374 kts | 265° |
| 2026-04-30 08:25 | 44.50394 | 25.78484 | 17598 ft | 374 kts | 266° |
| 2026-04-30 08:25 | 44.50230 | 25.74852 | 18295 ft | 373 kts | 265° |
| 2026-04-30 08:26 | 44.50065 | 25.71223 | 18911 ft | 373 kts | 266° |
| 2026-04-30 08:26 | 44.49901 | 25.67598 | 19445 ft | 374 kts | 266° |
| 2026-04-30 08:26 | 44.49735 | 25.63954 | 19952 ft | 375 kts | 266° |
| 2026-04-30 08:26 | 44.49567 | 25.60346 | 20452 ft | 377 kts | 266° |
| 2026-04-30 08:27 | 44.49397 | 25.56749 | 20946 ft | 378 kts | 266° |
| 2026-04-30 08:27 | 44.49223 | 25.53066 | 21431 ft | 380 kts | 266° |
| 2026-04-30 08:27 | 44.49047 | 25.49375 | 21914 ft | 381 kts | 266° |
| 2026-04-30 08:27 | 44.48870 | 25.45660 | 22385 ft | 383 kts | 266° |
| 2026-04-30 08:28 | 44.48688 | 25.41938 | 22853 ft | 384 kts | 266° |
| 2026-04-30 08:28 | 44.48501 | 25.38194 | 23318 ft | 386 kts | 266° |
| 2026-04-30 08:28 | 44.48314 | 25.34444 | 23780 ft | 387 kts | 266° |
| 2026-04-30 08:28 | 44.48129 | 25.30671 | 24185 ft | 389 kts | 266° |
| 2026-04-30 08:29 | 44.47945 | 25.26891 | 24588 ft | 390 kts | 266° |
| 2026-04-30 08:29 | 44.47758 | 25.23099 | 24991 ft | 390 kts | 266° |
| 2026-04-30 08:29 | 44.47568 | 25.19300 | 25398 ft | 391 kts | 266° |
| 2026-04-30 08:29 | 44.47376 | 25.15490 | 25804 ft | 392 kts | 266° |
| 2026-04-30 08:30 | 44.47183 | 25.11676 | 26218 ft | 393 kts | 266° |
| 2026-04-30 08:30 | 44.46990 | 25.07899 | 26627 ft | 394 kts | 266° |
| 2026-04-30 08:30 | 44.46793 | 25.04077 | 27025 ft | 395 kts | 266° |
| 2026-04-30 08:30 | 44.46592 | 25.00235 | 27429 ft | 395 kts | 266° |
| 2026-04-30 08:31 | 44.46389 | 24.96415 | 27963 ft | 392 kts | 266° |
| 2026-04-30 08:31 | 44.46189 | 24.92628 | 28510 ft | 388 kts | 266° |
| 2026-04-30 08:31 | 44.45991 | 24.88878 | 29054 ft | 385 kts | 266° |
| 2026-04-30 08:31 | 44.45795 | 24.85154 | 29605 ft | 382 kts | 267° |
| 2026-04-30 08:32 | 44.45598 | 24.81457 | 30167 ft | 379 kts | 267° |
| 2026-04-30 08:32 | 44.45401 | 24.77791 | 30646 ft | 377 kts | 267° |
| 2026-04-30 08:32 | 44.45204 | 24.74137 | 31017 ft | 377 kts | 267° |
| 2026-04-30 08:32 | 44.45005 | 24.70467 | 31327 ft | 379 kts | 266° |
| 2026-04-30 08:33 | 44.44802 | 24.66784 | 31629 ft | 380 kts | 266° |
| 2026-04-30 08:33 | 44.44600 | 24.63137 | 31906 ft | 382 kts | 266° |
| 2026-04-30 08:33 | 44.44387 | 24.59376 | 32200 ft | 383 kts | 266° |
| 2026-04-30 08:33 | 44.44175 | 24.55656 | 32476 ft | 385 kts | 266° |
| 2026-04-30 08:34 | 44.43967 | 24.51962 | 32740 ft | 386 kts | 266° |
| 2026-04-30 08:34 | 44.43757 | 24.48206 | 33016 ft | 388 kts | 266° |
| 2026-04-30 08:34 | 44.43548 | 24.44440 | 33292 ft | 389 kts | 266° |
| 2026-04-30 08:34 | 44.43335 | 24.40653 | 33549 ft | 391 kts | 266° |
| 2026-04-30 08:35 | 44.43116 | 24.36855 | 33808 ft | 392 kts | 266° |
| 2026-04-30 08:35 | 44.42894 | 24.33045 | 34074 ft | 394 kts | 266° |
| 2026-04-30 08:35 | 44.42668 | 24.29222 | 34318 ft | 395 kts | 266° |
| 2026-04-30 08:35 | 44.42443 | 24.25383 | 34529 ft | 396 kts | 266° |
| 2026-04-30 08:36 | 44.42218 | 24.21538 | 34749 ft | 397 kts | 266° |
| 2026-04-30 08:36 | 44.41992 | 24.17687 | 34972 ft | 398 kts | 266° |
| 2026-04-30 08:36 | 44.41763 | 24.13823 | 35195 ft | 399 kts | 266° |
| 2026-04-30 08:36 | 44.41530 | 24.09961 | 35417 ft | 399 kts | 266° |
| 2026-04-30 08:37 | 44.41296 | 24.06088 | 35632 ft | 400 kts | 266° |
| 2026-04-30 08:37 | 44.41061 | 24.02201 | 35855 ft | 401 kts | 266° |
| 2026-04-30 08:37 | 44.40826 | 23.98320 | 36078 ft | 401 kts | 266° |
| 2026-04-30 08:37 | 44.40588 | 23.94421 | 36235 ft | 403 kts | 266° |
| 2026-04-30 08:38 | 44.40348 | 23.90511 | 36274 ft | 404 kts | 266° |
| 2026-04-30 08:38 | 44.39864 | 23.82682 | 36272 ft | 404 kts | 266° |
| 2026-04-30 08:39 | 44.39374 | 23.74854 | 36275 ft | 405 kts | 266° |
| 2026-04-30 08:39 | 44.38868 | 23.67015 | 36279 ft | 405 kts | 266° |
| 2026-04-30 08:40 | 44.38363 | 23.59175 | 36279 ft | 405 kts | 266° |
| 2026-04-30 08:40 | 44.37853 | 23.51329 | 36282 ft | 406 kts | 266° |
| 2026-04-30 08:41 | 44.37345 | 23.43471 | 36287 ft | 406 kts | 266° |
| 2026-04-30 08:41 | 44.36821 | 23.35604 | 36296 ft | 406 kts | 266° |
| 2026-04-30 08:42 | 44.36289 | 23.27791 | 36297 ft | 407 kts | 266° |
| 2026-04-30 08:42 | 44.35761 | 23.19916 | 36300 ft | 407 kts | 266° |
| 2026-04-30 08:43 | 44.35225 | 23.12043 | 36299 ft | 407 kts | 266° |
| 2026-04-30 08:43 | 44.34677 | 23.04174 | 36304 ft | 407 kts | 266° |
| 2026-04-30 08:44 | 44.34128 | 22.96309 | 36303 ft | 407 kts | 266° |
| 2026-04-30 08:44 | 44.33575 | 22.88440 | 36302 ft | 407 kts | 266° |
| 2026-04-30 08:45 | 44.33013 | 22.80576 | 36304 ft | 407 kts | 266° |
| 2026-04-30 08:45 | 44.32451 | 22.72707 | 36303 ft | 407 kts | 266° |
| 2026-04-30 08:46 | 44.31882 | 22.64843 | 36301 ft | 407 kts | 265° |
| 2026-04-30 08:46 | 44.31306 | 22.56978 | 36299 ft | 407 kts | 267° |
| 2026-04-30 08:47 | 44.31524 | 22.49108 | 36301 ft | 406 kts | 275° |
| 2026-04-30 08:47 | 44.31928 | 22.41295 | 36293 ft | 406 kts | 274° |
| 2026-04-30 08:48 | 44.32320 | 22.33364 | 36296 ft | 407 kts | 274° |
| 2026-04-30 08:48 | 44.32695 | 22.25532 | 36300 ft | 407 kts | 274° |
| 2026-04-30 08:49 | 44.33073 | 22.17647 | 36294 ft | 407 kts | 274° |
| 2026-04-30 08:49 | 44.33455 | 22.09750 | 36294 ft | 407 kts | 274° |
| 2026-04-30 08:50 | 44.33833 | 22.01859 | 36293 ft | 407 kts | 274° |
| 2026-04-30 08:50 | 44.34199 | 21.93956 | 36297 ft | 408 kts | 274° |
| 2026-04-30 08:51 | 44.34556 | 21.86055 | 36302 ft | 408 kts | 274° |
| 2026-04-30 08:51 | 44.34901 | 21.78145 | 36305 ft | 408 kts | 274° |
| 2026-04-30 08:52 | 44.35258 | 21.70244 | 36306 ft | 408 kts | 274° |
| 2026-04-30 08:52 | 44.35606 | 21.62302 | 36310 ft | 409 kts | 274° |
| 2026-04-30 08:53 | 44.35942 | 21.54423 | 36305 ft | 409 kts | 274° |
| 2026-04-30 08:53 | 44.36268 | 21.46481 | 36307 ft | 409 kts | 274° |
| 2026-04-30 08:54 | 44.36595 | 21.38533 | 36308 ft | 410 kts | 274° |
| 2026-04-30 08:54 | 44.36918 | 21.30577 | 36311 ft | 410 kts | 274° |
| 2026-04-30 08:55 | 44.37236 | 21.22614 | 36309 ft | 411 kts | 274° |
| 2026-04-30 08:55 | 44.37555 | 21.14641 | 36311 ft | 411 kts | 274° |
| 2026-04-30 08:56 | 44.37860 | 21.06657 | 36309 ft | 411 kts | 274° |
| 2026-04-30 08:56 | 44.38159 | 20.98674 | 36312 ft | 412 kts | 274° |
| 2026-04-30 08:57 | 44.38458 | 20.90682 | 36311 ft | 412 kts | 274° |
| 2026-04-30 08:57 | 44.38755 | 20.82681 | 36314 ft | 412 kts | 274° |
| 2026-04-30 08:58 | 44.39039 | 20.74727 | 36319 ft | 412 kts | 274° |
| 2026-04-30 08:58 | 44.39327 | 20.66666 | 36326 ft | 413 kts | 274° |
| 2026-04-30 08:59 | 44.39598 | 20.58694 | 36330 ft | 413 kts | 274° |
| 2026-04-30 08:59 | 44.39870 | 20.50672 | 36330 ft | 413 kts | 274° |
| 2026-04-30 09:00 | 44.40134 | 20.42637 | 36333 ft | 414 kts | 274° |
| 2026-04-30 09:00 | 44.40391 | 20.34593 | 36333 ft | 414 kts | 274° |
| 2026-04-30 09:01 | 44.40645 | 20.26549 | 36337 ft | 414 kts | 274° |
| 2026-04-30 09:01 | 44.40894 | 20.18491 | 36333 ft | 414 kts | 274° |
| 2026-04-30 09:02 | 44.41256 | 20.06416 | 36345 ft | 415 kts | 274° |
| 2026-04-30 09:02 | 44.41486 | 19.98349 | 36340 ft | 415 kts | 274° |
| 2026-04-30 09:03 | 44.41708 | 19.90333 | 36342 ft | 415 kts | 274° |
| 2026-04-30 09:03 | 44.41935 | 19.82267 | 36342 ft | 415 kts | 274° |
| 2026-04-30 09:04 | 44.42159 | 19.74184 | 36340 ft | 416 kts | 274° |
| 2026-04-30 09:04 | 44.42368 | 19.66102 | 36347 ft | 416 kts | 274° |
| 2026-04-30 09:05 | 44.42571 | 19.58010 | 36344 ft | 416 kts | 273° |
| 2026-04-30 09:05 | 44.42773 | 19.49922 | 36345 ft | 416 kts | 274° |
| 2026-04-30 09:06 | 44.42971 | 19.41823 | 36351 ft | 417 kts | 273° |
| 2026-04-30 09:06 | 44.43158 | 19.33725 | 36349 ft | 417 kts | 273° |
| 2026-04-30 09:07 | 44.43341 | 19.25613 | 36360 ft | 417 kts | 273° |
| 2026-04-30 09:07 | 44.43520 | 19.17497 | 36357 ft | 418 kts | 273° |
| 2026-04-30 09:08 | 44.43692 | 19.09374 | 36362 ft | 418 kts | 273° |
| 2026-04-30 09:08 | 44.43861 | 19.01247 | 36360 ft | 418 kts | 273° |
| 2026-04-30 09:09 | 44.44029 | 18.93110 | 36364 ft | 418 kts | 273° |
| 2026-04-30 09:09 | 44.44187 | 18.84974 | 36370 ft | 419 kts | 273° |
| 2026-04-30 09:10 | 44.44333 | 18.76831 | 36364 ft | 419 kts | 273° |
| 2026-04-30 09:10 | 44.44449 | 18.70053 | 36366 ft | 419 kts | 273° |
| 2026-04-30 09:11 | 44.44591 | 18.61910 | 36373 ft | 419 kts | 273° |
| 2026-04-30 09:11 | 44.44729 | 18.53757 | 36366 ft | 419 kts | 273° |
| 2026-04-30 09:12 | 44.44861 | 18.45598 | 36362 ft | 419 kts | 273° |
| 2026-04-30 09:12 | 44.44978 | 18.37435 | 36357 ft | 419 kts | 273° |
| 2026-04-30 09:13 | 44.45091 | 18.29272 | 36354 ft | 420 kts | 273° |
| 2026-04-30 09:13 | 44.45204 | 18.21098 | 36351 ft | 420 kts | 273° |
| 2026-04-30 09:14 | 44.45312 | 18.12920 | 36352 ft | 420 kts | 273° |
| 2026-04-30 09:14 | 44.45409 | 18.04738 | 36353 ft | 421 kts | 272° |
| 2026-04-30 09:15 | 44.45500 | 17.96548 | 36353 ft | 421 kts | 273° |
| 2026-04-30 09:15 | 44.45593 | 17.88409 | 36351 ft | 421 kts | 273° |
| 2026-04-30 09:16 | 44.45677 | 17.80217 | 36352 ft | 421 kts | 273° |
| 2026-04-30 09:16 | 44.45754 | 17.72014 | 36356 ft | 421 kts | 272° |
| 2026-04-30 09:17 | 44.45821 | 17.63819 | 36357 ft | 421 kts | 272° |
| 2026-04-30 09:17 | 44.45888 | 17.55612 | 36355 ft | 422 kts | 272° |
| 2026-04-30 09:18 | 44.45948 | 17.47397 | 36352 ft | 422 kts | 272° |
| 2026-04-30 09:18 | 44.45998 | 17.39190 | 36356 ft | 422 kts | 272° |
| 2026-04-30 09:19 | 44.46041 | 17.30968 | 36355 ft | 422 kts | 272° |
| 2026-04-30 09:19 | 44.46079 | 17.22749 | 36354 ft | 422 kts | 272° |
| 2026-04-30 09:20 | 44.46113 | 17.14519 | 36354 ft | 422 kts | 272° |
| 2026-04-30 09:20 | 44.46142 | 17.06302 | 36355 ft | 422 kts | 272° |
| 2026-04-30 09:21 | 44.46170 | 16.98072 | 36357 ft | 423 kts | 272° |
| 2026-04-30 09:21 | 44.46195 | 16.89847 | 36353 ft | 423 kts | 272° |
| 2026-04-30 09:22 | 44.46207 | 16.81621 | 36353 ft | 423 kts | 272° |
| 2026-04-30 09:22 | 44.46207 | 16.73394 | 36351 ft | 423 kts | 272° |
| 2026-04-30 09:23 | 44.46200 | 16.65216 | 36341 ft | 423 kts | 272° |
| 2026-04-30 09:23 | 44.46193 | 16.56991 | 36339 ft | 423 kts | 272° |
| 2026-04-30 09:24 | 44.46184 | 16.48755 | 36332 ft | 423 kts | 272° |
| 2026-04-30 09:24 | 44.46169 | 16.40527 | 36327 ft | 423 kts | 272° |
| 2026-04-30 09:25 | 44.46146 | 16.32300 | 36321 ft | 422 kts | 272° |
| 2026-04-30 09:25 | 44.46118 | 16.24077 | 36322 ft | 422 kts | 272° |
| 2026-04-30 09:26 | 44.46082 | 16.15856 | 36317 ft | 422 kts | 272° |
| 2026-04-30 09:26 | 44.46039 | 16.07633 | 36314 ft | 422 kts | 272° |
| 2026-04-30 09:27 | 44.45992 | 15.99417 | 36316 ft | 422 kts | 272° |
| 2026-04-30 09:27 | 44.45942 | 15.91199 | 36315 ft | 422 kts | 272° |
| 2026-04-30 09:28 | 44.45882 | 15.82987 | 36313 ft | 422 kts | 272° |
| 2026-04-30 09:28 | 44.45811 | 15.74782 | 36309 ft | 422 kts | 272° |
| 2026-04-30 09:29 | 44.45739 | 15.66622 | 36307 ft | 422 kts | 272° |
| 2026-04-30 09:29 | 44.45664 | 15.58404 | 36306 ft | 422 kts | 272° |
| 2026-04-30 09:30 | 44.45583 | 15.50194 | 36302 ft | 422 kts | 272° |
| 2026-04-30 09:30 | 44.45493 | 15.41981 | 36297 ft | 422 kts | 272° |
| 2026-04-30 09:31 | 44.45397 | 15.33770 | 36291 ft | 422 kts | 272° |
| 2026-04-30 09:31 | 44.45302 | 15.25559 | 36289 ft | 422 kts | 272° |
| 2026-04-30 09:32 | 44.45196 | 15.17352 | 36284 ft | 422 kts | 272° |
| 2026-04-30 09:32 | 44.45084 | 15.09141 | 36277 ft | 422 kts | 272° |
| 2026-04-30 09:33 | 44.44971 | 15.00943 | 36270 ft | 422 kts | 271° |
| 2026-04-30 09:33 | 44.44847 | 14.92798 | 36268 ft | 421 kts | 271° |
| 2026-04-30 09:34 | 44.44719 | 14.84607 | 36262 ft | 421 kts | 271° |
| 2026-04-30 09:34 | 44.44579 | 14.76403 | 36264 ft | 421 kts | 271° |
| 2026-04-30 09:35 | 44.44431 | 14.68217 | 36262 ft | 421 kts | 271° |
| 2026-04-30 09:35 | 44.44278 | 14.60030 | 36267 ft | 421 kts | 271° |
| 2026-04-30 09:36 | 44.44128 | 14.51835 | 36266 ft | 421 kts | 271° |
| 2026-04-30 09:36 | 44.43975 | 14.43645 | 36268 ft | 421 kts | 271° |
| 2026-04-30 09:37 | 44.43813 | 14.35460 | 36271 ft | 421 kts | 271° |
| 2026-04-30 09:37 | 44.43644 | 14.27266 | 36270 ft | 421 kts | 271° |
| 2026-04-30 09:38 | 44.43469 | 14.19079 | 36271 ft | 421 kts | 271° |
| 2026-04-30 09:38 | 44.43282 | 14.10878 | 36272 ft | 421 kts | 271° |
| 2026-04-30 09:39 | 44.43092 | 14.02689 | 36273 ft | 421 kts | 271° |
| 2026-04-30 09:39 | 44.42905 | 13.94556 | 36277 ft | 421 kts | 271° |
| 2026-04-30 09:40 | 44.42703 | 13.86311 | 36277 ft | 421 kts | 271° |
| 2026-04-30 09:40 | 44.42499 | 13.78183 | 36281 ft | 421 kts | 271° |
| 2026-04-30 09:41 | 44.42291 | 13.69988 | 36273 ft | 421 kts | 271° |
| 2026-04-30 09:41 | 44.42071 | 13.61792 | 36282 ft | 421 kts | 271° |
| 2026-04-30 09:42 | 44.41845 | 13.53605 | 36285 ft | 421 kts | 271° |
| 2026-04-30 09:42 | 44.41705 | 13.45424 | 36285 ft | 419 kts | 277° |
| 2026-04-30 09:43 | 44.42223 | 13.37332 | 36291 ft | 418 kts | 277° |
| 2026-04-30 09:43 | 44.42741 | 13.29223 | 36294 ft | 418 kts | 277° |
| 2026-04-30 09:44 | 44.43254 | 13.21115 | 36300 ft | 418 kts | 277° |
| 2026-04-30 09:44 | 44.43757 | 13.13059 | 36302 ft | 419 kts | 277° |
| 2026-04-30 09:45 | 44.44267 | 13.04943 | 36308 ft | 419 kts | 277° |
| 2026-04-30 09:45 | 44.44766 | 12.96821 | 36311 ft | 419 kts | 277° |
| 2026-04-30 09:46 | 44.45252 | 12.88692 | 36313 ft | 419 kts | 277° |
| 2026-04-30 09:46 | 44.45739 | 12.80550 | 36315 ft | 419 kts | 277° |
| 2026-04-30 09:47 | 44.46214 | 12.72414 | 36315 ft | 420 kts | 277° |
| 2026-04-30 09:47 | 44.46685 | 12.64284 | 36319 ft | 420 kts | 277° |
| 2026-04-30 09:48 | 44.47157 | 12.56115 | 36320 ft | 420 kts | 277° |
| 2026-04-30 09:48 | 44.47619 | 12.47963 | 36324 ft | 420 kts | 277° |
| 2026-04-30 09:49 | 44.48079 | 12.39872 | 36325 ft | 420 kts | 277° |
| 2026-04-30 09:49 | 44.48537 | 12.31716 | 36327 ft | 420 kts | 277° |
| 2026-04-30 09:50 | 44.48980 | 12.23554 | 36323 ft | 420 kts | 277° |
| 2026-04-30 09:50 | 44.49422 | 12.15393 | 36320 ft | 420 kts | 277° |
| 2026-04-30 09:51 | 44.49855 | 12.07228 | 36314 ft | 420 kts | 277° |
| 2026-04-30 09:51 | 44.50277 | 11.99063 | 36313 ft | 420 kts | 277° |
| 2026-04-30 09:52 | 44.50703 | 11.90894 | 36309 ft | 420 kts | 277° |
| 2026-04-30 09:52 | 44.51122 | 11.82726 | 36307 ft | 420 kts | 277° |
| 2026-04-30 09:53 | 44.51528 | 11.74612 | 36304 ft | 420 kts | 276° |
| 2026-04-30 09:53 | 44.51934 | 11.66448 | 36304 ft | 420 kts | 276° |
| 2026-04-30 09:54 | 44.52333 | 11.58282 | 36305 ft | 420 kts | 276° |
| 2026-04-30 09:54 | 44.52727 | 11.50107 | 36305 ft | 420 kts | 276° |
| 2026-04-30 09:55 | 44.53117 | 11.41929 | 36319 ft | 420 kts | 276° |
| 2026-04-30 09:55 | 44.53494 | 11.33759 | 36316 ft | 420 kts | 276° |
| 2026-04-30 09:56 | 44.54659 | 11.25821 | 36313 ft | 415 kts | 293° |
| 2026-04-30 09:56 | 44.56858 | 11.18337 | 36314 ft | 415 kts | 293° |
| 2026-04-30 09:57 | 44.59045 | 11.10837 | 36313 ft | 415 kts | 293° |
| 2026-04-30 09:57 | 44.60132 | 11.07084 | 36070 ft | 418 kts | 293° |
| 2026-04-30 09:57 | 44.61225 | 11.03300 | 35528 ft | 417 kts | 293° |
| 2026-04-30 09:58 | 44.62309 | 10.99545 | 34996 ft | 415 kts | 293° |
| 2026-04-30 09:58 | 44.63029 | 10.97053 | 34649 ft | 415 kts | 293° |
| 2026-04-30 09:58 | 44.64110 | 10.93306 | 34093 ft | 414 kts | 293° |
| 2026-04-30 09:58 | 44.65188 | 10.89554 | 33496 ft | 415 kts | 293° |
| 2026-04-30 09:59 | 44.67694 | 10.80782 | 32127 ft | 417 kts | 293° |
| 2026-04-30 09:59 | 44.69508 | 10.74423 | 31200 ft | 420 kts | 293° |
| 2026-04-30 10:00 | 44.71685 | 10.66769 | 30082 ft | 423 kts | 293° |
| 2026-04-30 10:00 | 44.72763 | 10.62966 | 29478 ft | 426 kts | 293° |
| 2026-04-30 10:01 | 44.74969 | 10.55165 | 28272 ft | 423 kts | 293° |
| 2026-04-30 10:01 | 44.76030 | 10.51400 | 27707 ft | 418 kts | 293° |
| 2026-04-30 10:01 | 44.77084 | 10.47651 | 27122 ft | 405 kts | 293° |
| 2026-04-30 10:02 | 44.79099 | 10.40502 | 26014 ft | 381 kts | 294° |
| 2026-04-30 10:02 | 44.80063 | 10.37069 | 25474 ft | 372 kts | 294° |
| 2026-04-30 10:02 | 44.81005 | 10.33711 | 24907 ft | 366 kts | 294° |
| 2026-04-30 10:02 | 44.82182 | 10.30579 | 24310 ft | 357 kts | 308° |
| 2026-04-30 10:03 | 44.83852 | 10.28035 | 23714 ft | 352 kts | 322° |
| 2026-04-30 10:03 | 44.85877 | 10.26096 | 23029 ft | 354 kts | 329° |
| 2026-04-30 10:03 | 44.87970 | 10.24247 | 22353 ft | 357 kts | 329° |
| 2026-04-30 10:03 | 44.90085 | 10.22378 | 21688 ft | 360 kts | 329° |
| 2026-04-30 10:04 | 44.92213 | 10.20490 | 21076 ft | 362 kts | 329° |
| 2026-04-30 10:04 | 44.94342 | 10.18597 | 20496 ft | 363 kts | 329° |
| 2026-04-30 10:04 | 44.96480 | 10.16690 | 19920 ft | 363 kts | 329° |
| 2026-04-30 10:04 | 44.98612 | 10.14789 | 19362 ft | 363 kts | 329° |
| 2026-04-30 10:05 | 45.00750 | 10.12884 | 18809 ft | 363 kts | 329° |
| 2026-04-30 10:05 | 45.02884 | 10.10983 | 18221 ft | 363 kts | 329° |
| 2026-04-30 10:05 | 45.05013 | 10.09082 | 17602 ft | 362 kts | 329° |
| 2026-04-30 10:05 | 45.07140 | 10.07176 | 16996 ft | 361 kts | 329° |
| 2026-04-30 10:06 | 45.09254 | 10.05275 | 16438 ft | 359 kts | 329° |
| 2026-04-30 10:06 | 45.11331 | 10.03408 | 16250 ft | 347 kts | 329° |
| 2026-04-30 10:06 | 45.13316 | 10.01623 | 16257 ft | 329 kts | 329° |
| 2026-04-30 10:06 | 45.15197 | 9.99929 | 16239 ft | 314 kts | 329° |
| 2026-04-30 10:07 | 45.17028 | 9.98284 | 15878 ft | 311 kts | 329° |
| 2026-04-30 10:07 | 45.18865 | 9.96633 | 15321 ft | 315 kts | 329° |
| 2026-04-30 10:07 | 45.20717 | 9.94969 | 14708 ft | 313 kts | 329° |
| 2026-04-30 10:07 | 45.22608 | 9.93543 | 14123 ft | 303 kts | 343° |
| 2026-04-30 10:08 | 45.24651 | 9.93120 | 13462 ft | 295 kts | 3° |
| 2026-04-30 10:08 | 45.26660 | 9.93363 | 12917 ft | 286 kts | 6° |
| 2026-04-30 10:08 | 45.28549 | 9.94163 | 12396 ft | 287 kts | 32° |
| 2026-04-30 10:08 | 45.29882 | 9.96230 | 11884 ft | 295 kts | 63° |
| 2026-04-30 10:09 | 45.30379 | 9.99030 | 11337 ft | 293 kts | 81° |
| 2026-04-30 10:09 | 45.30593 | 10.01908 | 10720 ft | 293 kts | 83° |
| 2026-04-30 10:09 | 45.31005 | 10.04712 | 10061 ft | 290 kts | 68° |
| 2026-04-30 10:09 | 45.31774 | 10.07359 | 9330 ft | 290 kts | 65° |
| 2026-04-30 10:10 | 45.32594 | 10.10003 | 8546 ft | 293 kts | 65° |
| 2026-04-30 10:10 | 45.33533 | 10.12562 | 7789 ft | 293 kts | 53° |
| 2026-04-30 10:10 | 45.34910 | 10.14683 | 7053 ft | 293 kts | 45° |
| 2026-04-30 10:10 | 45.36347 | 10.16709 | 6409 ft | 289 kts | 46° |
| 2026-04-30 10:11 | 45.37763 | 10.18707 | 5790 ft | 284 kts | 45° |
| 2026-04-30 10:11 | 45.39392 | 10.20267 | 5176 ft | 283 kts | 28° |
| 2026-04-30 10:11 | 45.41152 | 10.21436 | 4725 ft | 273 kts | 29° |
| 2026-04-30 10:11 | 45.42837 | 10.22563 | 4372 ft | 263 kts | 29° |
| 2026-04-30 10:12 | 45.44462 | 10.23651 | 4092 ft | 254 kts | 28° |
| 2026-04-30 10:12 | 45.46158 | 10.24196 | 3850 ft | 250 kts | 359° |
| 2026-04-30 10:12 | 45.47789 | 10.23463 | 3605 ft | 247 kts | 327° |
| 2026-04-30 10:12 | 45.48911 | 10.21672 | 3340 ft | 243 kts | 294° |
| 2026-04-30 10:13 | 45.49325 | 10.19335 | 3114 ft | 255 kts | 277° |
| 2026-04-30 10:13 | 45.49943 | 10.16889 | 2993 ft | 270 kts | 308° |
| 2026-04-30 10:13 | 45.51230 | 10.14923 | 3011 ft | 270 kts | 316° |
| 2026-04-30 10:13 | 45.52535 | 10.13073 | 3000 ft | 259 kts | 316° |
| 2026-04-30 10:14 | 45.53761 | 10.11337 | 3002 ft | 237 kts | 316° |
| 2026-04-30 10:14 | 45.54881 | 10.09751 | 3014 ft | 219 kts | 317° |
| 2026-04-30 10:14 | 45.56939 | 10.06834 | 3005 ft | 203 kts | 316° |
| 2026-04-30 10:15 | 45.57929 | 10.05430 | 3009 ft | 201 kts | 316° |
| 2026-04-30 10:15 | 45.58911 | 10.04037 | 3030 ft | 194 kts | 316° |
| 2026-04-30 10:15 | 45.59856 | 10.02696 | 3023 ft | 190 kts | 317° |
| 2026-04-30 10:15 | 45.60717 | 10.01268 | 3023 ft | 190 kts | 303° |
| 2026-04-30 10:16 | 45.61276 | 9.99576 | 3026 ft | 189 kts | 290° |
| 2026-04-30 10:16 | 45.61683 | 9.97789 | 3027 ft | 189 kts | 285° |
| 2026-04-30 10:16 | 45.62035 | 9.96016 | 2982 ft | 183 kts | 285° |
| 2026-04-30 10:17 | 45.62689 | 9.92578 | 2671 ft | 177 kts | 284° |
| 2026-04-30 10:17 | 45.63332 | 9.89162 | 2473 ft | 177 kts | 284° |
| 2026-04-30 10:17 | 45.63653 | 9.87451 | 2428 ft | 178 kts | 285° |
| 2026-04-30 10:18 | 45.63968 | 9.85774 | 2426 ft | 172 kts | 284° |
| 2026-04-30 10:18 | 45.64273 | 9.84146 | 2421 ft | 169 kts | 285° |
| 2026-04-30 10:18 | 45.64574 | 9.82538 | 2284 ft | 166 kts | 284° |
| 2026-04-30 10:19 | 45.65165 | 9.79381 | 1859 ft | 164 kts | 284° |
| 2026-04-30 10:19 | 45.65458 | 9.77811 | 1607 ft | 163 kts | 285° |
| 2026-04-30 10:19 | 45.65746 | 9.76268 | 1377 ft | 162 kts | 285° |
| 2026-04-30 10:19 | 45.66035 | 9.74726 | 1163 ft | 161 kts | 284° |
| 2026-04-30 10:20 | 45.66316 | 9.73180 | 919 ft | 159 kts | 283° |
| 2026-04-30 10:20 | 45.66818 | 9.70466 | 787 ft | 92 kts | 285° |
| 2026-04-30 10:20 | 45.66928 | 9.69910 | 787 ft | 45 kts | 285° |
| 2026-04-30 10:21 | 45.67007 | 9.69478 | 787 ft | 44 kts | 284° |
| 2026-04-30 10:21 | 45.67063 | 9.69167 | 787 ft | 14 kts | 284° |
| 2026-04-30 10:21 | 45.67048 | 9.69049 | 787 ft | 7 kts | 245° |
| 2026-04-30 10:21 | 45.66994 | 9.68995 | 787 ft | 11 kts | 200° |
| 2026-04-30 10:22 | 45.66937 | 9.68998 | 787 ft | 8 kts | 153° |
| 2026-04-30 10:22 | 45.66910 | 9.69052 | 787 ft | 6 kts | 112° |
| 2026-04-30 10:22 | 45.66902 | 9.69120 | 787 ft | 8 kts | 97° |
| 2026-04-30 10:22 | 45.66888 | 9.69208 | 787 ft | 10 kts | 105° |
| 2026-04-30 10:23 | 45.66870 | 9.69315 | 787 ft | 12 kts | 104° |
| 2026-04-30 10:23 | 45.66846 | 9.69440 | 787 ft | 14 kts | 105° |
| 2026-04-30 10:23 | 45.66820 | 9.69582 | 787 ft | 16 kts | 105° |
| 2026-04-30 10:23 | 45.66791 | 9.69735 | 787 ft | 15 kts | 104° |
| 2026-04-30 10:24 | 45.66774 | 9.69815 | 787 ft | 2 kts | 134° |
| 2026-04-30 10:24 | 45.66752 | 9.69821 | 787 ft | 5 kts | 176° |
| 2026-04-30 10:24 | 45.66713 | 9.69811 | 787 ft | 7 kts | 194° |
| 2026-04-30 10:24 | 45.66686 | 9.69801 | 787 ft | 1 kts | 194° |
| 2026-04-30 10:25 | 45.66685 | 9.69801 | 787 ft | 0 kts | 194° |